sensor_id;sensor_type;location;lat;lon;timestamp;P1;durP1;ratioP1;P2;durP2;ratioP2
58992;SDS011;44782;0.000;0.000;2022-12-07T00:02:02;15.00;;;13.60;;
58992;SDS011;44782;0.000;0.000;2022-12-07T00:04:18;15.13;;;13.73;;
58992;SDS011;44782;0.000;0.000;2022-12-07T00:06:38;15.17;;;13.70;;
58992;SDS011;44782;0.000;0.000;2022-12-07T00:08:58;15.40;;;13.90;;
58992;SDS011;44782;0.000;0.000;2022-12-07T00:11:14;14.87;;;13.47;;
58992;SDS011;44782;0.000;0.000;2022-12-07T00:13:32;15.43;;;14.03;;
58992;SDS011;44782;0.000;0.000;2022-12-07T00:15:49;15.53;;;14.03;;
58992;SDS011;44782;0.000;0.000;2022-12-07T00:18:05;14.83;;;13.43;;
58992;SDS011;44782;0.000;0.000;2022-12-07T00:20:20;15.23;;;13.83;;
58992;SDS011;44782;0.000;0.000;2022-12-07T00:22:36;16.17;;;14.57;;
58992;SDS011;44782;0.000;0.000;2022-12-07T00:24:51;15.23;;;13.77;;
58992;SDS011;44782;0.000;0.000;2022-12-07T00:27:07;15.60;;;14.17;;
58992;SDS011;44782;0.000;0.000;2022-12-07T00:29:23;15.80;;;14.27;;
58992;SDS011;44782;0.000;0.000;2022-12-07T00:31:38;15.93;;;14.33;;
58992;SDS011;44782;0.000;0.000;2022-12-07T00:33:54;15.10;;;13.70;;
58992;SDS011;44782;0.000;0.000;2022-12-07T00:36:12;15.73;;;14.23;;
58992;SDS011;44782;0.000;0.000;2022-12-07T00:38:30;14.87;;;13.47;;
58992;SDS011;44782;0.000;0.000;2022-12-07T00:40:53;15.80;;;14.30;;
58992;SDS011;44782;0.000;0.000;2022-12-07T00:43:10;15.47;;;13.97;;
58992;SDS011;44782;0.000;0.000;2022-12-07T00:45:26;16.00;;;14.50;;
58992;SDS011;44782;0.000;0.000;2022-12-07T00:47:41;15.13;;;13.73;;
58992;SDS011;44782;0.000;0.000;2022-12-07T00:49:57;15.37;;;13.97;;
58992;SDS011;44782;0.000;0.000;2022-12-07T00:52:13;15.60;;;14.10;;
58992;SDS011;44782;0.000;0.000;2022-12-07T00:54:29;14.93;;;13.53;;
58992;SDS011;44782;0.000;0.000;2022-12-07T00:56:44;15.03;;;13.53;;
58992;SDS011;44782;0.000;0.000;2022-12-07T00:59:01;15.57;;;13.97;;
58992;SDS011;44782;0.000;0.000;2022-12-07T01:01:17;14.80;;;13.40;;
58992;SDS011;44782;0.000;0.000;2022-12-07T01:03:33;15.10;;;13.60;;
58992;SDS011;44782;0.000;0.000;2022-12-07T01:05:50;15.33;;;14.03;;
58992;SDS011;44782;0.000;0.000;2022-12-07T01:08:08;15.37;;;13.87;;
58992;SDS011;44782;0.000;0.000;2022-12-07T01:10:23;15.27;;;13.87;;
58992;SDS011;44782;0.000;0.000;2022-12-07T01:12:39;15.27;;;13.80;;
58992;SDS011;44782;0.000;0.000;2022-12-07T01:14:55;14.20;;;12.83;;
58992;SDS011;44782;0.000;0.000;2022-12-07T01:17:11;15.67;;;14.20;;
58992;SDS011;44782;0.000;0.000;2022-12-07T01:19:27;15.07;;;13.63;;
58992;SDS011;44782;0.000;0.000;2022-12-07T01:21:42;14.90;;;13.57;;
58992;SDS011;44782;0.000;0.000;2022-12-07T01:23:58;15.00;;;13.60;;
58992;SDS011;44782;0.000;0.000;2022-12-07T01:26:16;15.67;;;14.17;;
58992;SDS011;44782;0.000;0.000;2022-12-07T01:28:34;14.47;;;13.17;;
58992;SDS011;44782;0.000;0.000;2022-12-07T01:30:56;15.37;;;13.97;;
58992;SDS011;44782;0.000;0.000;2022-12-07T01:33:13;14.33;;;13.03;;
58992;SDS011;44782;0.000;0.000;2022-12-07T01:35:29;15.33;;;13.83;;
58992;SDS011;44782;0.000;0.000;2022-12-07T01:37:48;14.47;;;13.17;;
58992;SDS011;44782;0.000;0.000;2022-12-07T01:40:04;14.30;;;13.00;;
58992;SDS011;44782;0.000;0.000;2022-12-07T01:42:21;14.63;;;13.27;;
58992;SDS011;44782;0.000;0.000;2022-12-07T01:47:30;14.27;;;12.90;;
58992;SDS011;44782;0.000;0.000;2022-12-07T01:49:46;15.23;;;13.83;;
58992;SDS011;44782;0.000;0.000;2022-12-07T01:52:14;14.37;;;13.03;;
58992;SDS011;44782;0.000;0.000;2022-12-07T01:54:39;14.47;;;13.07;;
58992;SDS011;44782;0.000;0.000;2022-12-07T01:56:54;14.43;;;13.13;;
58992;SDS011;44782;0.000;0.000;2022-12-07T01:59:12;15.00;;;13.50;;
58992;SDS011;44782;0.000;0.000;2022-12-07T02:01:32;14.17;;;12.87;;
58992;SDS011;44782;0.000;0.000;2022-12-07T02:03:48;13.80;;;12.50;;
58992;SDS011;44782;0.000;0.000;2022-12-07T02:06:04;14.03;;;12.73;;
58992;SDS011;44782;0.000;0.000;2022-12-07T02:08:21;14.70;;;13.20;;
58992;SDS011;44782;0.000;0.000;2022-12-07T02:10:37;14.20;;;12.87;;
58992;SDS011;44782;0.000;0.000;2022-12-07T02:12:56;14.13;;;12.83;;
58992;SDS011;44782;0.000;0.000;2022-12-07T02:15:19;13.90;;;12.60;;
58992;SDS011;44782;0.000;0.000;2022-12-07T02:17:47;13.63;;;12.33;;
58992;SDS011;44782;0.000;0.000;2022-12-07T02:20:09;13.37;;;12.17;;
58992;SDS011;44782;0.000;0.000;2022-12-07T02:28:04;13.23;;;11.93;;
58992;SDS011;44782;0.000;0.000;2022-12-07T02:30:40;13.87;;;12.57;;
58992;SDS011;44782;0.000;0.000;2022-12-07T02:33:15;13.60;;;12.40;;
58992;SDS011;44782;0.000;0.000;2022-12-07T02:38:16;13.33;;;12.10;;
58992;SDS011;44782;0.000;0.000;2022-12-07T02:40:34;13.87;;;12.57;;
58992;SDS011;44782;0.000;0.000;2022-12-07T02:42:51;13.83;;;12.53;;
58992;SDS011;44782;0.000;0.000;2022-12-07T02:45:20;13.27;;;12.07;;
58992;SDS011;44782;0.000;0.000;2022-12-07T02:47:37;13.77;;;12.57;;
58992;SDS011;44782;0.000;0.000;2022-12-07T02:49:54;14.10;;;12.80;;
58992;SDS011;44782;0.000;0.000;2022-12-07T02:52:10;13.43;;;12.20;;
58992;SDS011;44782;0.000;0.000;2022-12-07T02:54:26;13.37;;;12.17;;
58992;SDS011;44782;0.000;0.000;2022-12-07T02:56:49;13.33;;;12.07;;
58992;SDS011;44782;0.000;0.000;2022-12-07T03:10:14;13.13;;;11.93;;
58992;SDS011;44782;0.000;0.000;2022-12-07T03:12:37;12.60;;;11.50;;
58992;SDS011;44782;0.000;0.000;2022-12-07T03:15:14;13.13;;;11.83;;
58992;SDS011;44782;0.000;0.000;2022-12-07T03:17:37;13.13;;;11.83;;
58992;SDS011;44782;0.000;0.000;2022-12-07T03:19:59;12.17;;;11.07;;
58992;SDS011;44782;0.000;0.000;2022-12-07T03:22:18;13.07;;;11.87;;
58992;SDS011;44782;0.000;0.000;2022-12-07T03:24:37;12.30;;;11.20;;
58992;SDS011;44782;0.000;0.000;2022-12-07T03:27:02;12.10;;;10.97;;
58992;SDS011;44782;0.000;0.000;2022-12-07T03:29:30;11.97;;;10.87;;
58992;SDS011;44782;0.000;0.000;2022-12-07T03:31:53;13.10;;;11.90;;
58992;SDS011;44782;0.000;0.000;2022-12-07T03:34:25;12.03;;;11.03;;
58992;SDS011;44782;0.000;0.000;2022-12-07T03:36:59;12.23;;;11.10;;
58992;SDS011;44782;0.000;0.000;2022-12-07T03:42:28;12.07;;;10.97;;
58992;SDS011;44782;0.000;0.000;2022-12-07T03:44:45;12.03;;;10.93;;
58992;SDS011;44782;0.000;0.000;2022-12-07T03:47:20;12.03;;;10.93;;
58992;SDS011;44782;0.000;0.000;2022-12-07T03:49:55;11.57;;;10.57;;
58992;SDS011;44782;0.000;0.000;2022-12-07T03:54:43;11.67;;;10.57;;
58992;SDS011;44782;0.000;0.000;2022-12-07T03:57:03;11.97;;;10.97;;
58992;SDS011;44782;0.000;0.000;2022-12-07T03:59:20;11.70;;;10.70;;
58992;SDS011;44782;0.000;0.000;2022-12-07T04:01:37;11.03;;;10.03;;
58992;SDS011;44782;0.000;0.000;2022-12-07T04:03:52;10.47;;;9.50;;
58992;SDS011;44782;0.000;0.000;2022-12-07T04:06:08;12.50;;;11.40;;
58992;SDS011;44782;0.000;0.000;2022-12-07T04:08:24;11.17;;;10.17;;
58992;SDS011;44782;0.000;0.000;2022-12-07T04:10:40;11.63;;;10.63;;
58992;SDS011;44782;0.000;0.000;2022-12-07T04:12:55;11.07;;;10.07;;
58992;SDS011;44782;0.000;0.000;2022-12-07T04:15:11;10.63;;;9.70;;
58992;SDS011;44782;0.000;0.000;2022-12-07T04:17:27;11.23;;;10.23;;
58992;SDS011;44782;0.000;0.000;2022-12-07T04:19:42;10.83;;;9.93;;
58992;SDS011;44782;0.000;0.000;2022-12-07T04:21:59;10.53;;;9.63;;
58992;SDS011;44782;0.000;0.000;2022-12-07T04:24:16;11.00;;;10.00;;
58992;SDS011;44782;0.000;0.000;2022-12-07T04:26:31;10.60;;;9.70;;
58992;SDS011;44782;0.000;0.000;2022-12-07T04:28:47;9.97;;;9.07;;
58992;SDS011;44782;0.000;0.000;2022-12-07T04:31:03;9.97;;;8.97;;
58992;SDS011;44782;0.000;0.000;2022-12-07T04:33:18;9.87;;;8.97;;
58992;SDS011;44782;0.000;0.000;2022-12-07T04:35:34;10.37;;;9.47;;
58992;SDS011;44782;0.000;0.000;2022-12-07T04:37:49;10.17;;;9.37;;
58992;SDS011;44782;0.000;0.000;2022-12-07T04:40:06;10.00;;;9.10;;
58992;SDS011;44782;0.000;0.000;2022-12-07T04:42:23;9.83;;;8.93;;
58992;SDS011;44782;0.000;0.000;2022-12-07T04:44:39;9.83;;;9.03;;
58992;SDS011;44782;0.000;0.000;2022-12-07T04:46:55;10.10;;;9.20;;
58992;SDS011;44782;0.000;0.000;2022-12-07T04:49:12;10.67;;;9.67;;
58992;SDS011;44782;0.000;0.000;2022-12-07T04:51:28;10.57;;;9.60;;
58992;SDS011;44782;0.000;0.000;2022-12-07T04:53:44;9.73;;;8.83;;
58992;SDS011;44782;0.000;0.000;2022-12-07T04:56:00;9.80;;;9.00;;
58992;SDS011;44782;0.000;0.000;2022-12-07T04:58:16;10.30;;;9.40;;
58992;SDS011;44782;0.000;0.000;2022-12-07T05:00:31;9.83;;;8.97;;
58992;SDS011;44782;0.000;0.000;2022-12-07T05:02:47;9.50;;;8.63;;
58992;SDS011;44782;0.000;0.000;2022-12-07T05:05:03;9.20;;;8.40;;
58992;SDS011;44782;0.000;0.000;2022-12-07T05:07:18;10.00;;;9.10;;
58992;SDS011;44782;0.000;0.000;2022-12-07T05:09:34;9.33;;;8.50;;
58992;SDS011;44782;0.000;0.000;2022-12-07T05:11:50;9.17;;;8.37;;
58992;SDS011;44782;0.000;0.000;2022-12-07T05:14:10;9.33;;;8.53;;
58992;SDS011;44782;0.000;0.000;2022-12-07T05:16:28;9.13;;;8.33;;
58992;SDS011;44782;0.000;0.000;2022-12-07T05:18:44;8.83;;;8.13;;
58992;SDS011;44782;0.000;0.000;2022-12-07T05:20:59;9.20;;;8.40;;
58992;SDS011;44782;0.000;0.000;2022-12-07T05:23:15;8.97;;;8.20;;
58992;SDS011;44782;0.000;0.000;2022-12-07T05:25:31;8.97;;;8.17;;
58992;SDS011;44782;0.000;0.000;2022-12-07T05:27:46;8.83;;;8.13;;
58992;SDS011;44782;0.000;0.000;2022-12-07T05:30:02;8.77;;;7.97;;
58992;SDS011;44782;0.000;0.000;2022-12-07T05:32:19;9.17;;;8.27;;
58992;SDS011;44782;0.000;0.000;2022-12-07T05:34:34;8.60;;;7.90;;
58992;SDS011;44782;0.000;0.000;2022-12-07T05:36:50;8.70;;;7.90;;
58992;SDS011;44782;0.000;0.000;2022-12-07T05:39:06;8.43;;;7.73;;
58992;SDS011;44782;0.000;0.000;2022-12-07T05:41:22;8.40;;;7.70;;
58992;SDS011;44782;0.000;0.000;2022-12-07T05:43:57;7.97;;;7.27;;
58992;SDS011;44782;0.000;0.000;2022-12-07T05:46:12;8.07;;;7.37;;
58992;SDS011;44782;0.000;0.000;2022-12-07T05:48:28;8.10;;;7.40;;
58992;SDS011;44782;0.000;0.000;2022-12-07T05:50:49;7.83;;;7.13;;
58992;SDS011;44782;0.000;0.000;2022-12-07T05:53:05;7.83;;;7.13;;
58992;SDS011;44782;0.000;0.000;2022-12-07T05:55:21;8.80;;;8.00;;
58992;SDS011;44782;0.000;0.000;2022-12-07T05:57:37;8.07;;;7.37;;
58992;SDS011;44782;0.000;0.000;2022-12-07T05:59:52;8.10;;;7.40;;
58992;SDS011;44782;0.000;0.000;2022-12-07T06:02:09;8.50;;;7.80;;
58992;SDS011;44782;0.000;0.000;2022-12-07T06:04:27;7.87;;;7.17;;
58992;SDS011;44782;0.000;0.000;2022-12-07T06:06:44;8.40;;;7.70;;
58992;SDS011;44782;0.000;0.000;2022-12-07T06:09:00;7.83;;;7.13;;
58992;SDS011;44782;0.000;0.000;2022-12-07T06:11:18;8.17;;;7.47;;
58992;SDS011;44782;0.000;0.000;2022-12-07T06:13:53;7.43;;;6.83;;
58992;SDS011;44782;0.000;0.000;2022-12-07T06:16:08;8.10;;;7.40;;
58992;SDS011;44782;0.000;0.000;2022-12-07T06:18:24;8.07;;;7.33;;
58992;SDS011;44782;0.000;0.000;2022-12-07T06:20:40;7.60;;;7.00;;
58992;SDS011;44782;0.000;0.000;2022-12-07T06:22:55;8.07;;;7.37;;
58992;SDS011;44782;0.000;0.000;2022-12-07T06:25:11;7.73;;;7.13;;
58992;SDS011;44782;0.000;0.000;2022-12-07T06:27:27;7.77;;;7.07;;
58992;SDS011;44782;0.000;0.000;2022-12-07T06:29:43;7.73;;;7.07;;
58992;SDS011;44782;0.000;0.000;2022-12-07T06:31:58;7.50;;;6.90;;
58992;SDS011;44782;0.000;0.000;2022-12-07T06:34:15;7.80;;;7.13;;
58992;SDS011;44782;0.000;0.000;2022-12-07T06:36:32;7.50;;;6.90;;
58992;SDS011;44782;0.000;0.000;2022-12-07T06:38:48;7.17;;;6.57;;
58992;SDS011;44782;0.000;0.000;2022-12-07T06:41:04;7.43;;;6.83;;
58992;SDS011;44782;0.000;0.000;2022-12-07T06:43:19;7.17;;;6.57;;
58992;SDS011;44782;0.000;0.000;2022-12-07T06:45:35;7.50;;;6.90;;
58992;SDS011;44782;0.000;0.000;2022-12-07T06:47:51;7.00;;;6.40;;
58992;SDS011;44782;0.000;0.000;2022-12-07T06:50:06;7.10;;;6.50;;
58992;SDS011;44782;0.000;0.000;2022-12-07T06:52:22;6.67;;;6.17;;
58992;SDS011;44782;0.000;0.000;2022-12-07T06:54:38;7.30;;;6.70;;
58992;SDS011;44782;0.000;0.000;2022-12-07T06:56:54;7.17;;;6.57;;
58992;SDS011;44782;0.000;0.000;2022-12-07T06:59:09;6.60;;;6.10;;
58992;SDS011;44782;0.000;0.000;2022-12-07T07:01:25;6.67;;;6.17;;
58992;SDS011;44782;0.000;0.000;2022-12-07T07:03:41;6.70;;;6.20;;
58992;SDS011;44782;0.000;0.000;2022-12-07T07:05:57;7.00;;;6.40;;
58992;SDS011;44782;0.000;0.000;2022-12-07T07:10:28;6.57;;;6.07;;
58992;SDS011;44782;0.000;0.000;2022-12-07T07:12:44;6.90;;;6.30;;
58992;SDS011;44782;0.000;0.000;2022-12-07T07:14:59;6.63;;;6.13;;
58992;SDS011;44782;0.000;0.000;2022-12-07T07:17:15;6.53;;;6.00;;
58992;SDS011;44782;0.000;0.000;2022-12-07T07:19:30;6.40;;;5.90;;
58992;SDS011;44782;0.000;0.000;2022-12-07T07:21:46;6.93;;;6.33;;
58992;SDS011;44782;0.000;0.000;2022-12-07T07:24:02;6.90;;;6.37;;
58992;SDS011;44782;0.000;0.000;2022-12-07T07:26:17;6.60;;;6.10;;
58992;SDS011;44782;0.000;0.000;2022-12-07T07:28:33;7.00;;;6.40;;
58992;SDS011;44782;0.000;0.000;2022-12-07T07:30:49;6.20;;;5.70;;
58992;SDS011;44782;0.000;0.000;2022-12-07T07:33:04;7.10;;;6.50;;
58992;SDS011;44782;0.000;0.000;2022-12-07T07:35:20;6.30;;;5.80;;
58992;SDS011;44782;0.000;0.000;2022-12-07T07:37:36;6.93;;;6.33;;
58992;SDS011;44782;0.000;0.000;2022-12-07T07:39:52;6.17;;;5.67;;
58992;SDS011;44782;0.000;0.000;2022-12-07T07:42:08;6.13;;;5.63;;
58992;SDS011;44782;0.000;0.000;2022-12-07T07:44:24;6.63;;;6.13;;
58992;SDS011;44782;0.000;0.000;2022-12-07T07:46:40;6.53;;;6.03;;
58992;SDS011;44782;0.000;0.000;2022-12-07T07:48:55;5.80;;;5.40;;
58992;SDS011;44782;0.000;0.000;2022-12-07T07:51:11;6.70;;;6.13;;
58992;SDS011;44782;0.000;0.000;2022-12-07T07:53:27;6.40;;;5.90;;
58992;SDS011;44782;0.000;0.000;2022-12-07T07:55:49;6.70;;;6.10;;
58992;SDS011;44782;0.000;0.000;2022-12-07T07:58:06;6.57;;;6.07;;
58992;SDS011;44782;0.000;0.000;2022-12-07T08:00:22;6.30;;;5.80;;
58992;SDS011;44782;0.000;0.000;2022-12-07T08:02:38;6.20;;;5.70;;
58992;SDS011;44782;0.000;0.000;2022-12-07T08:04:54;6.10;;;5.60;;
58992;SDS011;44782;0.000;0.000;2022-12-07T08:07:10;6.17;;;5.67;;
58992;SDS011;44782;0.000;0.000;2022-12-07T08:09:27;6.13;;;5.53;;
58992;SDS011;44782;0.000;0.000;2022-12-07T08:11:42;6.47;;;5.97;;
58992;SDS011;44782;0.000;0.000;2022-12-07T08:13:58;6.37;;;5.87;;
58992;SDS011;44782;0.000;0.000;2022-12-07T08:16:14;6.37;;;5.80;;
58992;SDS011;44782;0.000;0.000;2022-12-07T08:18:30;5.87;;;5.37;;
58992;SDS011;44782;0.000;0.000;2022-12-07T08:20:45;6.20;;;5.70;;
58992;SDS011;44782;0.000;0.000;2022-12-07T08:23:01;6.13;;;5.63;;
58992;SDS011;44782;0.000;0.000;2022-12-07T08:25:17;6.53;;;6.03;;
58992;SDS011;44782;0.000;0.000;2022-12-07T08:27:33;6.00;;;5.50;;
58992;SDS011;44782;0.000;0.000;2022-12-07T08:29:49;6.10;;;5.60;;
58992;SDS011;44782;0.000;0.000;2022-12-07T08:32:04;6.30;;;5.70;;
58992;SDS011;44782;0.000;0.000;2022-12-07T08:34:20;5.73;;;5.30;;
58992;SDS011;44782;0.000;0.000;2022-12-07T08:36:36;6.23;;;5.73;;
58992;SDS011;44782;0.000;0.000;2022-12-07T08:38:51;5.80;;;5.40;;
58992;SDS011;44782;0.000;0.000;2022-12-07T08:41:07;6.10;;;5.60;;
58992;SDS011;44782;0.000;0.000;2022-12-07T08:43:23;5.93;;;5.43;;
58992;SDS011;44782;0.000;0.000;2022-12-07T08:45:42;6.20;;;5.70;;
58992;SDS011;44782;0.000;0.000;2022-12-07T08:48:06;6.27;;;5.77;;
58992;SDS011;44782;0.000;0.000;2022-12-07T08:50:25;6.10;;;5.60;;
58992;SDS011;44782;0.000;0.000;2022-12-07T08:52:41;6.50;;;6.00;;
58992;SDS011;44782;0.000;0.000;2022-12-07T08:54:59;5.90;;;5.43;;
58992;SDS011;44782;0.000;0.000;2022-12-07T08:57:15;6.27;;;5.77;;
58992;SDS011;44782;0.000;0.000;2022-12-07T08:59:31;5.63;;;5.13;;
58992;SDS011;44782;0.000;0.000;2022-12-07T09:01:50;6.20;;;5.70;;
58992;SDS011;44782;0.000;0.000;2022-12-07T09:04:05;5.87;;;5.40;;
58992;SDS011;44782;0.000;0.000;2022-12-07T09:06:21;6.00;;;5.50;;
58992;SDS011;44782;0.000;0.000;2022-12-07T09:08:38;6.20;;;5.70;;
58992;SDS011;44782;0.000;0.000;2022-12-07T09:10:57;5.97;;;5.47;;
58992;SDS011;44782;0.000;0.000;2022-12-07T09:13:13;6.10;;;5.60;;
58992;SDS011;44782;0.000;0.000;2022-12-07T09:15:29;6.20;;;5.70;;
58992;SDS011;44782;0.000;0.000;2022-12-07T09:17:46;6.13;;;5.63;;
58992;SDS011;44782;0.000;0.000;2022-12-07T09:20:02;6.37;;;5.87;;
58992;SDS011;44782;0.000;0.000;2022-12-07T09:22:19;5.90;;;5.40;;
58992;SDS011;44782;0.000;0.000;2022-12-07T09:24:35;6.00;;;5.50;;
58992;SDS011;44782;0.000;0.000;2022-12-07T09:26:51;6.07;;;5.67;;
58992;SDS011;44782;0.000;0.000;2022-12-07T09:29:06;6.33;;;5.83;;
58992;SDS011;44782;0.000;0.000;2022-12-07T09:31:22;5.63;;;5.23;;
58992;SDS011;44782;0.000;0.000;2022-12-07T09:33:38;6.10;;;5.60;;
58992;SDS011;44782;0.000;0.000;2022-12-07T09:35:53;5.83;;;5.33;;
58992;SDS011;44782;0.000;0.000;2022-12-07T09:38:09;6.13;;;5.60;;
58992;SDS011;44782;0.000;0.000;2022-12-07T09:40:25;6.20;;;5.70;;
58992;SDS011;44782;0.000;0.000;2022-12-07T09:42:45;6.20;;;5.70;;
58992;SDS011;44782;0.000;0.000;2022-12-07T09:45:05;5.93;;;5.43;;
58992;SDS011;44782;0.000;0.000;2022-12-07T09:47:22;6.00;;;5.60;;
58992;SDS011;44782;0.000;0.000;2022-12-07T09:49:38;6.00;;;5.50;;
58992;SDS011;44782;0.000;0.000;2022-12-07T09:54:36;6.00;;;5.50;;
58992;SDS011;44782;0.000;0.000;2022-12-07T09:56:56;6.03;;;5.53;;
58992;SDS011;44782;0.000;0.000;2022-12-07T09:59:13;5.77;;;5.27;;
58992;SDS011;44782;0.000;0.000;2022-12-07T10:01:33;6.33;;;5.83;;
58992;SDS011;44782;0.000;0.000;2022-12-07T10:03:53;6.20;;;5.70;;
58992;SDS011;44782;0.000;0.000;2022-12-07T10:06:14;6.00;;;5.50;;
58992;SDS011;44782;0.000;0.000;2022-12-07T10:08:29;6.00;;;5.50;;
58992;SDS011;44782;0.000;0.000;2022-12-07T10:10:45;6.23;;;5.73;;
58992;SDS011;44782;0.000;0.000;2022-12-07T10:13:14;5.73;;;5.27;;
58992;SDS011;44782;0.000;0.000;2022-12-07T10:18:30;5.90;;;5.40;;
58992;SDS011;44782;0.000;0.000;2022-12-07T10:20:46;5.90;;;5.50;;
58992;SDS011;44782;0.000;0.000;2022-12-07T10:23:04;5.90;;;5.40;;
58992;SDS011;44782;0.000;0.000;2022-12-07T10:25:32;5.80;;;5.30;;
58992;SDS011;44782;0.000;0.000;2022-12-07T10:30:26;6.10;;;5.60;;
58992;SDS011;44782;0.000;0.000;2022-12-07T10:32:42;5.33;;;4.93;;
58992;SDS011;44782;0.000;0.000;2022-12-07T10:37:40;5.97;;;5.47;;
58992;SDS011;44782;0.000;0.000;2022-12-07T10:39:56;5.37;;;4.97;;
58992;SDS011;44782;0.000;0.000;2022-12-07T10:42:16;6.00;;;5.50;;
58992;SDS011;44782;0.000;0.000;2022-12-07T10:44:33;5.10;;;4.70;;
58992;SDS011;44782;0.000;0.000;2022-12-07T11:10:26;5.17;;;4.77;;
58992;SDS011;44782;0.000;0.000;2022-12-07T11:12:47;5.63;;;5.23;;
58992;SDS011;44782;0.000;0.000;2022-12-07T11:18:09;5.47;;;5.07;;
58992;SDS011;44782;0.000;0.000;2022-12-07T11:20:37;5.73;;;5.23;;
58992;SDS011;44782;0.000;0.000;2022-12-07T11:23:44;5.37;;;4.93;;
58992;SDS011;44782;0.000;0.000;2022-12-07T11:33:13;5.77;;;5.30;;
58992;SDS011;44782;0.000;0.000;2022-12-07T11:38:17;4.90;;;4.50;;
58992;SDS011;44782;0.000;0.000;2022-12-07T11:40:49;5.43;;;5.00;;
58992;SDS011;44782;0.000;0.000;2022-12-07T11:43:26;5.03;;;4.70;;
58992;SDS011;44782;0.000;0.000;2022-12-07T11:45:52;5.47;;;4.97;;
58992;SDS011;44782;0.000;0.000;2022-12-07T11:48:33;5.33;;;4.83;;
58992;SDS011;44782;0.000;0.000;2022-12-07T11:51:02;5.07;;;4.70;;
58992;SDS011;44782;0.000;0.000;2022-12-07T12:01:01;4.70;;;4.40;;
58992;SDS011;44782;0.000;0.000;2022-12-07T12:03:28;5.50;;;5.00;;
58992;SDS011;44782;0.000;0.000;2022-12-07T12:05:49;5.07;;;4.67;;
58992;SDS011;44782;0.000;0.000;2022-12-07T12:13:16;5.20;;;4.80;;
58992;SDS011;44782;0.000;0.000;2022-12-07T12:25:29;5.53;;;5.07;;
58992;SDS011;44782;0.000;0.000;2022-12-07T12:27:52;5.87;;;5.37;;
58992;SDS011;44782;0.000;0.000;2022-12-07T12:30:24;5.27;;;4.87;;
58992;SDS011;44782;0.000;0.000;2022-12-07T12:32:41;5.03;;;4.57;;
58992;SDS011;44782;0.000;0.000;2022-12-07T12:35:02;5.43;;;4.77;;
58992;SDS011;44782;0.000;0.000;2022-12-07T12:37:40;5.30;;;4.90;;
58992;SDS011;44782;0.000;0.000;2022-12-07T12:42:43;5.23;;;4.83;;
58992;SDS011;44782;0.000;0.000;2022-12-07T12:45:04;5.50;;;5.10;;
58992;SDS011;44782;0.000;0.000;2022-12-07T12:47:40;5.57;;;5.17;;
58992;SDS011;44782;0.000;0.000;2022-12-07T12:50:10;5.30;;;4.90;;
58992;SDS011;44782;0.000;0.000;2022-12-07T12:57:28;4.70;;;4.30;;
58992;SDS011;44782;0.000;0.000;2022-12-07T13:04:39;4.73;;;4.37;;
58992;SDS011;44782;0.000;0.000;2022-12-07T13:07:10;5.00;;;4.60;;
58992;SDS011;44782;0.000;0.000;2022-12-07T13:09:28;4.57;;;4.20;;
58992;SDS011;44782;0.000;0.000;2022-12-07T13:11:49;4.97;;;4.57;;
58992;SDS011;44782;0.000;0.000;2022-12-07T13:19:54;4.70;;;4.30;;
58992;SDS011;44782;0.000;0.000;2022-12-07T13:24:47;4.00;;;3.70;;
58992;SDS011;44782;0.000;0.000;2022-12-07T13:27:02;4.50;;;4.20;;
58992;SDS011;44782;0.000;0.000;2022-12-07T13:29:22;4.50;;;4.10;;
58992;SDS011;44782;0.000;0.000;2022-12-07T13:33:55;4.07;;;3.77;;
58992;SDS011;44782;0.000;0.000;2022-12-07T13:36:17;4.10;;;3.80;;
58992;SDS011;44782;0.000;0.000;2022-12-07T13:38:36;4.10;;;3.80;;
58992;SDS011;44782;0.000;0.000;2022-12-07T13:41:27;4.00;;;3.70;;
58992;SDS011;44782;0.000;0.000;2022-12-07T13:43:47;4.00;;;3.70;;
58992;SDS011;44782;0.000;0.000;2022-12-07T13:46:25;4.37;;;3.97;;
58992;SDS011;44782;0.000;0.000;2022-12-07T13:49:01;4.47;;;4.10;;
58992;SDS011;44782;0.000;0.000;2022-12-07T13:51:24;3.93;;;3.63;;
58992;SDS011;44782;0.000;0.000;2022-12-07T13:53:46;3.87;;;3.57;;
58992;SDS011;44782;0.000;0.000;2022-12-07T13:56:12;3.80;;;3.50;;
58992;SDS011;44782;0.000;0.000;2022-12-07T13:58:32;4.00;;;3.70;;
58992;SDS011;44782;0.000;0.000;2022-12-07T14:00:48;3.93;;;3.63;;
58992;SDS011;44782;0.000;0.000;2022-12-07T14:05:33;3.90;;;3.60;;
58992;SDS011;44782;0.000;0.000;2022-12-07T14:08:00;3.77;;;3.47;;
58992;SDS011;44782;0.000;0.000;2022-12-07T14:10:24;3.57;;;3.27;;
58992;SDS011;44782;0.000;0.000;2022-12-07T14:12:51;3.90;;;3.60;;
58992;SDS011;44782;0.000;0.000;2022-12-07T14:15:15;3.90;;;3.60;;
58992;SDS011;44782;0.000;0.000;2022-12-07T14:17:36;3.60;;;3.40;;
58992;SDS011;44782;0.000;0.000;2022-12-07T14:22:54;3.60;;;3.30;;
58992;SDS011;44782;0.000;0.000;2022-12-07T14:27:32;3.47;;;3.17;;
58992;SDS011;44782;0.000;0.000;2022-12-07T14:29:49;3.60;;;3.30;;
58992;SDS011;44782;0.000;0.000;2022-12-07T14:32:24;3.60;;;3.30;;
58992;SDS011;44782;0.000;0.000;2022-12-07T14:37:26;3.20;;;3.00;;
58992;SDS011;44782;0.000;0.000;2022-12-07T14:39:43;3.57;;;3.27;;
58992;SDS011;44782;0.000;0.000;2022-12-07T14:41:59;3.60;;;3.30;;
58992;SDS011;44782;0.000;0.000;2022-12-07T14:44:15;3.70;;;3.40;;
58992;SDS011;44782;0.000;0.000;2022-12-07T14:46:30;3.23;;;3.03;;
58992;SDS011;44782;0.000;0.000;2022-12-07T14:48:46;4.03;;;3.63;;
58992;SDS011;44782;0.000;0.000;2022-12-07T14:51:02;3.27;;;2.97;;
58992;SDS011;44782;0.000;0.000;2022-12-07T14:53:20;3.33;;;3.03;;
58992;SDS011;44782;0.000;0.000;2022-12-07T14:55:43;3.87;;;3.30;;
58992;SDS011;44782;0.000;0.000;2022-12-07T14:57:59;3.33;;;3.03;;
58992;SDS011;44782;0.000;0.000;2022-12-07T15:00:16;3.30;;;3.00;;
58992;SDS011;44782;0.000;0.000;2022-12-07T15:02:32;3.47;;;3.17;;
58992;SDS011;44782;0.000;0.000;2022-12-07T15:04:48;3.30;;;3.10;;
58992;SDS011;44782;0.000;0.000;2022-12-07T15:07:04;3.03;;;2.83;;
58992;SDS011;44782;0.000;0.000;2022-12-07T15:09:25;3.43;;;3.13;;
58992;SDS011;44782;0.000;0.000;2022-12-07T15:11:41;3.07;;;2.87;;
58992;SDS011;44782;0.000;0.000;2022-12-07T15:13:56;2.97;;;2.77;;
58992;SDS011;44782;0.000;0.000;2022-12-07T15:16:25;3.30;;;3.00;;
58992;SDS011;44782;0.000;0.000;2022-12-07T15:18:41;3.17;;;2.90;;
58992;SDS011;44782;0.000;0.000;2022-12-07T15:20:56;3.33;;;3.03;;
58992;SDS011;44782;0.000;0.000;2022-12-07T15:23:12;3.50;;;3.20;;
58992;SDS011;44782;0.000;0.000;2022-12-07T15:25:29;3.40;;;3.10;;
58992;SDS011;44782;0.000;0.000;2022-12-07T15:27:44;3.00;;;2.80;;
58992;SDS011;44782;0.000;0.000;2022-12-07T15:30:00;2.90;;;2.70;;
58992;SDS011;44782;0.000;0.000;2022-12-07T15:32:15;3.33;;;3.03;;
58992;SDS011;44782;0.000;0.000;2022-12-07T15:34:31;3.40;;;3.10;;
58992;SDS011;44782;0.000;0.000;2022-12-07T15:36:47;3.20;;;2.90;;
58992;SDS011;44782;0.000;0.000;2022-12-07T15:39:02;3.50;;;3.20;;
58992;SDS011;44782;0.000;0.000;2022-12-07T15:41:18;2.93;;;2.73;;
58992;SDS011;44782;0.000;0.000;2022-12-07T15:43:35;3.30;;;2.90;;
58992;SDS011;44782;0.000;0.000;2022-12-07T15:46:10;3.30;;;3.00;;
58992;SDS011;44782;0.000;0.000;2022-12-07T15:48:25;3.20;;;2.90;;
58992;SDS011;44782;0.000;0.000;2022-12-07T15:50:41;3.20;;;2.90;;
58992;SDS011;44782;0.000;0.000;2022-12-07T15:52:56;3.30;;;3.00;;
58992;SDS011;44782;0.000;0.000;2022-12-07T15:55:12;3.87;;;2.90;;
58992;SDS011;44782;0.000;0.000;2022-12-07T15:57:28;2.87;;;2.67;;
58992;SDS011;44782;0.000;0.000;2022-12-07T15:59:44;2.90;;;2.70;;
58992;SDS011;44782;0.000;0.000;2022-12-07T16:02:00;3.30;;;3.10;;
58992;SDS011;44782;0.000;0.000;2022-12-07T16:04:15;3.40;;;3.10;;
58992;SDS011;44782;0.000;0.000;2022-12-07T16:06:31;2.97;;;2.67;;
58992;SDS011;44782;0.000;0.000;2022-12-07T16:08:47;3.00;;;2.80;;
58992;SDS011;44782;0.000;0.000;2022-12-07T16:11:04;2.83;;;2.63;;
58992;SDS011;44782;0.000;0.000;2022-12-07T16:13:21;3.10;;;2.80;;
58992;SDS011;44782;0.000;0.000;2022-12-07T16:15:40;3.17;;;2.87;;